sensor_id;sensor_type;location;lat;lon;timestamp;pressure;altitude;pressure_sealevel;temperature
15079;BMP180;6932;51.438;5.470;2023-01-28T00:02:14;102473.00;;;10.00
15079;BMP180;6932;51.438;5.470;2023-01-28T00:04:39;102475.00;;;9.90
15079;BMP180;6932;51.438;5.470;2023-01-28T00:07:05;102478.00;;;9.90
15079;BMP180;6932;51.438;5.470;2023-01-28T00:09:31;102469.00;;;9.90
15079;BMP180;6932;51.438;5.470;2023-01-28T00:11:57;102477.00;;;9.90
15079;BMP180;6932;51.438;5.470;2023-01-28T00:14:23;102474.00;;;9.90
15079;BMP180;6932;51.438;5.470;2023-01-28T00:16:49;102475.00;;;9.90
15079;BMP180;6932;51.438;5.470;2023-01-28T00:19:15;102474.00;;;9.90
15079;BMP180;6932;51.438;5.470;2023-01-28T00:21:41;102472.00;;;9.90
15079;BMP180;6932;51.438;5.470;2023-01-28T00:24:07;102470.00;;;9.90
15079;BMP180;6932;51.438;5.470;2023-01-28T00:26:34;102466.00;;;9.80
15079;BMP180;6932;51.438;5.470;2023-01-28T00:29:01;102474.00;;;9.80
15079;BMP180;6932;51.438;5.470;2023-01-28T00:31:27;102485.00;;;9.80
15079;BMP180;6932;51.438;5.470;2023-01-28T00:33:55;102472.00;;;9.80
15079;BMP180;6932;51.438;5.470;2023-01-28T00:36:24;102479.00;;;9.80
15079;BMP180;6932;51.438;5.470;2023-01-28T00:38:53;102482.00;;;9.80
15079;BMP180;6932;51.438;5.470;2023-01-28T00:41:22;102487.00;;;9.80
15079;BMP180;6932;51.438;5.470;2023-01-28T00:43:50;102489.00;;;9.80
15079;BMP180;6932;51.438;5.470;2023-01-28T00:46:17;102483.00;;;9.80
15079;BMP180;6932;51.438;5.470;2023-01-28T00:48:43;102483.00;;;9.80
15079;BMP180;6932;51.438;5.470;2023-01-28T00:51:12;102484.00;;;9.80
15079;BMP180;6932;51.438;5.470;2023-01-28T00:53:38;102488.00;;;9.80
15079;BMP180;6932;51.438;5.470;2023-01-28T00:56:06;102495.00;;;9.80
15079;BMP180;6932;51.438;5.470;2023-01-28T00:58:33;102490.00;;;9.80
15079;BMP180;6932;51.438;5.470;2023-01-28T01:01:26;102504.00;;;9.80
15079;BMP180;6932;51.438;5.470;2023-01-28T01:03:54;102496.00;;;9.70
15079;BMP180;6932;51.438;5.470;2023-01-28T01:06:38;102509.00;;;9.70
15079;BMP180;6932;51.438;5.470;2023-01-28T01:09:09;102503.00;;;9.70
15079;BMP180;6932;51.438;5.470;2023-01-28T01:11:36;102493.00;;;9.70
15079;BMP180;6932;51.438;5.470;2023-01-28T01:14:02;102504.00;;;9.70
15079;BMP180;6932;51.438;5.470;2023-01-28T01:16:30;102505.00;;;9.70
15079;BMP180;6932;51.438;5.470;2023-01-28T01:18:58;102499.00;;;9.70
15079;BMP180;6932;51.438;5.470;2023-01-28T01:21:27;102496.00;;;9.70
15079;BMP180;6932;51.438;5.470;2023-01-28T01:23:54;102500.00;;;9.70
15079;BMP180;6932;51.438;5.470;2023-01-28T01:26:19;102497.00;;;9.70
15079;BMP180;6932;51.438;5.470;2023-01-28T01:28:46;102495.00;;;9.70
15079;BMP180;6932;51.438;5.470;2023-01-28T01:31:16;102496.00;;;9.70
15079;BMP180;6932;51.438;5.470;2023-01-28T01:33:44;102489.00;;;9.70
15079;BMP180;6932;51.438;5.470;2023-01-28T01:36:12;102490.00;;;9.70
15079;BMP180;6932;51.438;5.470;2023-01-28T01:38:39;102490.00;;;9.70
15079;BMP180;6932;51.438;5.470;2023-01-28T01:41:06;102500.00;;;9.70
15079;BMP180;6932;51.438;5.470;2023-01-28T01:43:48;102492.00;;;9.70
15079;BMP180;6932;51.438;5.470;2023-01-28T01:46:37;102497.00;;;9.70
15079;BMP180;6932;51.438;5.470;2023-01-28T01:49:20;102502.00;;;9.70
15079;BMP180;6932;51.438;5.470;2023-01-28T01:52:05;102491.00;;;9.70
15079;BMP180;6932;51.438;5.470;2023-01-28T01:54:32;102502.00;;;9.70
15079;BMP180;6932;51.438;5.470;2023-01-28T01:57:00;102504.00;;;9.70
15079;BMP180;6932;51.438;5.470;2023-01-28T01:59:31;102486.00;;;9.70
15079;BMP180;6932;51.438;5.470;2023-01-28T02:02:02;102497.00;;;9.70
15079;BMP180;6932;51.438;5.470;2023-01-28T02:04:34;102499.00;;;9.70
15079;BMP180;6932;51.438;5.470;2023-01-28T02:07:02;102499.00;;;9.70
15079;BMP180;6932;51.438;5.470;2023-01-28T02:09:33;102501.00;;;9.70
15079;BMP180;6932;51.438;5.470;2023-01-28T02:12:07;102489.00;;;9.70
15079;BMP180;6932;51.438;5.470;2023-01-28T02:14:41;102496.00;;;9.60
15079;BMP180;6932;51.438;5.470;2023-01-28T02:17:09;102501.00;;;9.70
15079;BMP180;6932;51.438;5.470;2023-01-28T02:20:01;102499.00;;;9.70
15079;BMP180;6932;51.438;5.470;2023-01-28T02:28:30;102493.00;;;9.60
15079;BMP180;6932;51.438;5.470;2023-01-28T02:31:20;102495.00;;;9.60
15079;BMP180;6932;51.438;5.470;2023-01-28T02:36:48;102499.00;;;9.60
15079;BMP180;6932;51.438;5.470;2023-01-28T02:39:31;102502.00;;;9.60
15079;BMP180;6932;51.438;5.470;2023-01-28T02:42:10;102503.00;;;9.60
15079;BMP180;6932;51.438;5.470;2023-01-28T02:44:39;102508.00;;;9.60
15079;BMP180;6932;51.438;5.470;2023-01-28T02:47:12;102498.00;;;9.60
15079;BMP180;6932;51.438;5.470;2023-01-28T02:50:02;102497.00;;;9.50
15079;BMP180;6932;51.438;5.470;2023-01-28T02:58:38;102501.00;;;9.50
15079;BMP180;6932;51.438;5.470;2023-01-28T03:01:14;102505.00;;;9.50
15079;BMP180;6932;51.438;5.470;2023-01-28T03:04:11;102507.00;;;9.50
15079;BMP180;6932;51.438;5.470;2023-01-28T03:06:48;102504.00;;;9.50
15079;BMP180;6932;51.438;5.470;2023-01-28T03:09:16;102513.00;;;9.40
15079;BMP180;6932;51.438;5.470;2023-01-28T03:12:09;102510.00;;;9.50
15079;BMP180;6932;51.438;5.470;2023-01-28T03:15:00;102513.00;;;9.40
15079;BMP180;6932;51.438;5.470;2023-01-28T03:17:59;102515.00;;;9.40
15079;BMP180;6932;51.438;5.470;2023-01-28T03:24:12;102504.00;;;9.40
15079;BMP180;6932;51.438;5.470;2023-01-28T03:27:05;102509.00;;;9.40
15079;BMP180;6932;51.438;5.470;2023-01-28T03:29:53;102511.00;;;9.40
15079;BMP180;6932;51.438;5.470;2023-01-28T03:32:41;102519.00;;;9.40
15079;BMP180;6932;51.438;5.470;2023-01-28T03:35:32;102510.00;;;9.40
15079;BMP180;6932;51.438;5.470;2023-01-28T03:38:19;102518.00;;;9.40
15079;BMP180;6932;51.438;5.470;2023-01-28T03:40:54;102524.00;;;9.40
15079;BMP180;6932;51.438;5.470;2023-01-28T03:43:21;102519.00;;;9.40
15079;BMP180;6932;51.438;5.470;2023-01-28T03:45:48;102520.00;;;9.40
15079;BMP180;6932;51.438;5.470;2023-01-28T03:48:22;102517.00;;;9.40
15079;BMP180;6932;51.438;5.470;2023-01-28T03:50:49;102527.00;;;9.40
15079;BMP180;6932;51.438;5.470;2023-01-28T03:53:16;102525.00;;;9.40
15079;BMP180;6932;51.438;5.470;2023-01-28T03:55:44;102522.00;;;9.40
15079;BMP180;6932;51.438;5.470;2023-01-28T03:58:13;102504.00;;;9.40
15079;BMP180;6932;51.438;5.470;2023-01-28T04:00:39;102518.00;;;9.40
15079;BMP180;6932;51.438;5.470;2023-01-28T04:03:17;102508.00;;;9.40
15079;BMP180;6932;51.438;5.470;2023-01-28T04:06:04;102515.00;;;9.40
15079;BMP180;6932;51.438;5.470;2023-01-28T04:08:31;102525.00;;;9.30
15079;BMP180;6932;51.438;5.470;2023-01-28T04:10:56;102517.00;;;9.30
15079;BMP180;6932;51.438;5.470;2023-01-28T04:13:22;102527.00;;;9.40
15079;BMP180;6932;51.438;5.470;2023-01-28T04:15:48;102533.00;;;9.40
15079;BMP180;6932;51.438;5.470;2023-01-28T04:18:14;102534.00;;;9.40
15079;BMP180;6932;51.438;5.470;2023-01-28T04:20:40;102540.00;;;9.40
15079;BMP180;6932;51.438;5.470;2023-01-28T04:23:06;102530.00;;;9.40
15079;BMP180;6932;51.438;5.470;2023-01-28T04:25:33;102534.00;;;9.40
15079;BMP180;6932;51.438;5.470;2023-01-28T04:27:59;102528.00;;;9.40
15079;BMP180;6932;51.438;5.470;2023-01-28T04:30:25;102537.00;;;9.40
15079;BMP180;6932;51.438;5.470;2023-01-28T04:32:51;102539.00;;;9.40
15079;BMP180;6932;51.438;5.470;2023-01-28T04:35:18;102534.00;;;9.40
15079;BMP180;6932;51.438;5.470;2023-01-28T04:37:44;102533.00;;;9.40
15079;BMP180;6932;51.438;5.470;2023-01-28T04:40:11;102529.00;;;9.40
15079;BMP180;6932;51.438;5.470;2023-01-28T04:42:38;102524.00;;;9.40
15079;BMP180;6932;51.438;5.470;2023-01-28T04:45:04;102526.00;;;9.40
15079;BMP180;6932;51.438;5.470;2023-01-28T04:47:31;102531.00;;;9.40
15079;BMP180;6932;51.438;5.470;2023-01-28T04:49:56;102522.00;;;9.40
15079;BMP180;6932;51.438;5.470;2023-01-28T04:52:22;102527.00;;;9.50
15079;BMP180;6932;51.438;5.470;2023-01-28T04:54:48;102536.00;;;9.50
15079;BMP180;6932;51.438;5.470;2023-01-28T04:57:13;102520.00;;;9.50
15079;BMP180;6932;51.438;5.470;2023-01-28T04:59:41;102528.00;;;9.50
15079;BMP180;6932;51.438;5.470;2023-01-28T05:02:06;102529.00;;;9.50
15079;BMP180;6932;51.438;5.470;2023-01-28T05:04:32;102535.00;;;9.50
15079;BMP180;6932;51.438;5.470;2023-01-28T05:06:58;102525.00;;;9.50
15079;BMP180;6932;51.438;5.470;2023-01-28T05:09:24;102519.00;;;9.50
15079;BMP180;6932;51.438;5.470;2023-01-28T05:11:49;102531.00;;;9.50
15079;BMP180;6932;51.438;5.470;2023-01-28T05:14:15;102538.00;;;9.50
15079;BMP180;6932;51.438;5.470;2023-01-28T05:16:41;102540.00;;;9.50
15079;BMP180;6932;51.438;5.470;2023-01-28T05:19:06;102537.00;;;9.50
15079;BMP180;6932;51.438;5.470;2023-01-28T05:21:32;102537.00;;;9.50
15079;BMP180;6932;51.438;5.470;2023-01-28T05:23:58;102542.00;;;9.50
15079;BMP180;6932;51.438;5.470;2023-01-28T05:26:24;102538.00;;;9.40
15079;BMP180;6932;51.438;5.470;2023-01-28T05:28:49;102540.00;;;9.40
15079;BMP180;6932;51.438;5.470;2023-01-28T05:31:16;102534.00;;;9.40
15079;BMP180;6932;51.438;5.470;2023-01-28T05:33:41;102545.00;;;9.40
15079;BMP180;6932;51.438;5.470;2023-01-28T05:36:07;102537.00;;;9.40
15079;BMP180;6932;51.438;5.470;2023-01-28T05:38:33;102524.00;;;9.40
15079;BMP180;6932;51.438;5.470;2023-01-28T05:40:59;102523.00;;;9.40
15079;BMP180;6932;51.438;5.470;2023-01-28T05:43:25;102534.00;;;9.40
15079;BMP180;6932;51.438;5.470;2023-01-28T05:45:50;102536.00;;;9.40
15079;BMP180;6932;51.438;5.470;2023-01-28T05:48:16;102534.00;;;9.40
15079;BMP180;6932;51.438;5.470;2023-01-28T05:50:42;102535.00;;;9.40
15079;BMP180;6932;51.438;5.470;2023-01-28T05:53:08;102529.00;;;9.40
15079;BMP180;6932;51.438;5.470;2023-01-28T05:55:34;102541.00;;;9.30
15079;BMP180;6932;51.438;5.470;2023-01-28T05:58:00;102543.00;;;9.30
15079;BMP180;6932;51.438;5.470;2023-01-28T06:00:26;102547.00;;;9.30
15079;BMP180;6932;51.438;5.470;2023-01-28T06:02:52;102542.00;;;9.30
15079;BMP180;6932;51.438;5.470;2023-01-28T06:05:19;102544.00;;;9.30
15079;BMP180;6932;51.438;5.470;2023-01-28T06:07:47;102540.00;;;9.30
15079;BMP180;6932;51.438;5.470;2023-01-28T06:10:14;102545.00;;;9.30
15079;BMP180;6932;51.438;5.470;2023-01-28T06:12:43;102547.00;;;9.30
15079;BMP180;6932;51.438;5.470;2023-01-28T06:15:09;102541.00;;;9.30
15079;BMP180;6932;51.438;5.470;2023-01-28T06:17:36;102543.00;;;9.20
15079;BMP180;6932;51.438;5.470;2023-01-28T06:20:02;102555.00;;;9.20
15079;BMP180;6932;51.438;5.470;2023-01-28T06:22:28;102565.00;;;9.20
15079;BMP180;6932;51.438;5.470;2023-01-28T06:24:54;102551.00;;;9.20
15079;BMP180;6932;51.438;5.470;2023-01-28T06:27:19;102557.00;;;9.20
15079;BMP180;6932;51.438;5.470;2023-01-28T06:29:45;102558.00;;;9.20
15079;BMP180;6932;51.438;5.470;2023-01-28T06:32:11;102559.00;;;9.20
15079;BMP180;6932;51.438;5.470;2023-01-28T06:34:37;102563.00;;;9.20
15079;BMP180;6932;51.438;5.470;2023-01-28T06:37:03;102558.00;;;9.20
15079;BMP180;6932;51.438;5.470;2023-01-28T06:39:30;102550.00;;;9.20
15079;BMP180;6932;51.438;5.470;2023-01-28T06:41:57;102553.00;;;9.20
15079;BMP180;6932;51.438;5.470;2023-01-28T06:44:23;102564.00;;;9.20
15079;BMP180;6932;51.438;5.470;2023-01-28T06:46:49;102557.00;;;9.20
15079;BMP180;6932;51.438;5.470;2023-01-28T06:49:15;102567.00;;;9.10
15079;BMP180;6932;51.438;5.470;2023-01-28T06:51:41;102565.00;;;9.10
15079;BMP180;6932;51.438;5.470;2023-01-28T06:54:07;102561.00;;;9.10
15079;BMP180;6932;51.438;5.470;2023-01-28T06:56:32;102571.00;;;9.10
15079;BMP180;6932;51.438;5.470;2023-01-28T06:58:59;102571.00;;;9.10
15079;BMP180;6932;51.438;5.470;2023-01-28T07:01:25;102560.00;;;9.10
15079;BMP180;6932;51.438;5.470;2023-01-28T07:03:51;102575.00;;;9.10
15079;BMP180;6932;51.438;5.470;2023-01-28T07:06:16;102572.00;;;9.10
15079;BMP180;6932;51.438;5.470;2023-01-28T07:08:42;102567.00;;;9.10
15079;BMP180;6932;51.438;5.470;2023-01-28T07:11:08;102572.00;;;9.10
15079;BMP180;6932;51.438;5.470;2023-01-28T07:13:34;102569.00;;;9.10
15079;BMP180;6932;51.438;5.470;2023-01-28T07:16:00;102573.00;;;9.10
15079;BMP180;6932;51.438;5.470;2023-01-28T07:18:26;102577.00;;;9.10
15079;BMP180;6932;51.438;5.470;2023-01-28T07:20:52;102584.00;;;9.10
15079;BMP180;6932;51.438;5.470;2023-01-28T07:23:17;102587.00;;;9.10
15079;BMP180;6932;51.438;5.470;2023-01-28T07:25:43;102578.00;;;9.10
15079;BMP180;6932;51.438;5.470;2023-01-28T07:28:09;102580.00;;;9.10
15079;BMP180;6932;51.438;5.470;2023-01-28T07:30:36;102580.00;;;9.00
15079;BMP180;6932;51.438;5.470;2023-01-28T07:33:02;102587.00;;;9.00
15079;BMP180;6932;51.438;5.470;2023-01-28T07:35:28;102593.00;;;9.00
15079;BMP180;6932;51.438;5.470;2023-01-28T07:37:57;102590.00;;;9.00
15079;BMP180;6932;51.438;5.470;2023-01-28T07:40:24;102594.00;;;9.00
15079;BMP180;6932;51.438;5.470;2023-01-28T07:42:50;102595.00;;;9.00
15079;BMP180;6932;51.438;5.470;2023-01-28T07:45:17;102588.00;;;9.00
15079;BMP180;6932;51.438;5.470;2023-01-28T07:47:43;102600.00;;;9.00
15079;BMP180;6932;51.438;5.470;2023-01-28T07:50:10;102597.00;;;9.00
15079;BMP180;6932;51.438;5.470;2023-01-28T07:52:37;102598.00;;;9.00
15079;BMP180;6932;51.438;5.470;2023-01-28T07:55:10;102600.00;;;9.00
15079;BMP180;6932;51.438;5.470;2023-01-28T07:57:52;102618.00;;;9.10
15079;BMP180;6932;51.438;5.470;2023-01-28T08:00:19;102604.00;;;9.10
15079;BMP180;6932;51.438;5.470;2023-01-28T08:02:46;102611.00;;;9.10
15079;BMP180;6932;51.438;5.470;2023-01-28T08:05:22;102617.00;;;9.10
15079;BMP180;6932;51.438;5.470;2023-01-28T08:07:48;102623.00;;;9.10
15079;BMP180;6932;51.438;5.470;2023-01-28T08:10:18;102624.00;;;9.10
15079;BMP180;6932;51.438;5.470;2023-01-28T08:12:55;102623.00;;;9.00
15079;BMP180;6932;51.438;5.470;2023-01-28T08:15:23;102627.00;;;9.00
15079;BMP180;6932;51.438;5.470;2023-01-28T08:17:50;102622.00;;;9.00
15079;BMP180;6932;51.438;5.470;2023-01-28T08:20:18;102624.00;;;9.00
15079;BMP180;6932;51.438;5.470;2023-01-28T08:22:43;102629.00;;;9.00
15079;BMP180;6932;51.438;5.470;2023-01-28T08:25:09;102634.00;;;9.00
15079;BMP180;6932;51.438;5.470;2023-01-28T08:27:35;102651.00;;;9.00
15079;BMP180;6932;51.438;5.470;2023-01-28T08:30:01;102647.00;;;9.00
15079;BMP180;6932;51.438;5.470;2023-01-28T08:32:28;102653.00;;;9.00
15079;BMP180;6932;51.438;5.470;2023-01-28T08:34:55;102649.00;;;9.00
15079;BMP180;6932;51.438;5.470;2023-01-28T08:37:22;102661.00;;;9.00
15079;BMP180;6932;51.438;5.470;2023-01-28T08:39:48;102665.00;;;9.00
15079;BMP180;6932;51.438;5.470;2023-01-28T08:42:14;102666.00;;;9.00
15079;BMP180;6932;51.438;5.470;2023-01-28T08:44:40;102673.00;;;9.00
15079;BMP180;6932;51.438;5.470;2023-01-28T08:47:05;102679.00;;;9.00
15079;BMP180;6932;51.438;5.470;2023-01-28T08:49:31;102672.00;;;9.00
15079;BMP180;6932;51.438;5.470;2023-01-28T08:51:57;102678.00;;;9.00
15079;BMP180;6932;51.438;5.470;2023-01-28T08:54:23;102683.00;;;9.00
15079;BMP180;6932;51.438;5.470;2023-01-28T08:56:49;102674.00;;;9.00
15079;BMP180;6932;51.438;5.470;2023-01-28T08:59:16;102682.00;;;9.00
15079;BMP180;6932;51.438;5.470;2023-01-28T09:01:42;102685.00;;;9.00
15079;BMP180;6932;51.438;5.470;2023-01-28T09:04:08;102678.00;;;9.00
15079;BMP180;6932;51.438;5.470;2023-01-28T09:06:34;102689.00;;;9.00
15079;BMP180;6932;51.438;5.470;2023-01-28T09:09:00;102680.00;;;9.00
15079;BMP180;6932;51.438;5.470;2023-01-28T09:11:28;102672.00;;;9.10
15079;BMP180;6932;51.438;5.470;2023-01-28T09:13:56;102681.00;;;9.10
15079;BMP180;6932;51.438;5.470;2023-01-28T09:16:22;102691.00;;;9.10
15079;BMP180;6932;51.438;5.470;2023-01-28T09:18:48;102696.00;;;9.10
15079;BMP180;6932;51.438;5.470;2023-01-28T09:21:16;102689.00;;;9.10
15079;BMP180;6932;51.438;5.470;2023-01-28T09:23:42;102690.00;;;9.00
15079;BMP180;6932;51.438;5.470;2023-01-28T09:26:08;102695.00;;;9.00
15079;BMP180;6932;51.438;5.470;2023-01-28T09:28:34;102693.00;;;9.10
15079;BMP180;6932;51.438;5.470;2023-01-28T09:31:06;102695.00;;;9.10
15079;BMP180;6932;51.438;5.470;2023-01-28T09:33:34;102706.00;;;9.00
15079;BMP180;6932;51.438;5.470;2023-01-28T09:36:03;102702.00;;;9.00
15079;BMP180;6932;51.438;5.470;2023-01-28T09:38:31;102704.00;;;9.00
15079;BMP180;6932;51.438;5.470;2023-01-28T09:40:57;102694.00;;;9.00
15079;BMP180;6932;51.438;5.470;2023-01-28T09:43:53;102698.00;;;9.00
15079;BMP180;6932;51.438;5.470;2023-01-28T09:46:31;102714.00;;;9.00
15079;BMP180;6932;51.438;5.470;2023-01-28T09:48:59;102705.00;;;9.00
15079;BMP180;6932;51.438;5.470;2023-01-28T09:51:46;102630.00;;;9.00
15079;BMP180;6932;51.438;5.470;2023-01-28T09:54:43;102618.00;;;9.00
15079;BMP180;6932;51.438;5.470;2023-01-28T09:57:21;102617.00;;;8.80
15079;BMP180;6932;51.438;5.470;2023-01-28T09:59:48;102628.00;;;8.50
15079;BMP180;6932;51.438;5.470;2023-01-28T10:08:13;102620.00;;;8.00
15079;BMP180;6932;51.438;5.470;2023-01-28T10:13:37;102628.00;;;7.80
15079;BMP180;6932;51.438;5.470;2023-01-28T10:16:28;102624.00;;;7.70
15079;BMP180;6932;51.438;5.470;2023-01-28T10:19:15;102631.00;;;7.70
15079;BMP180;6932;51.438;5.470;2023-01-28T10:21:48;102649.00;;;7.70
15079;BMP180;6932;51.438;5.470;2023-01-28T10:24:24;102726.00;;;7.60
15079;BMP180;6932;51.438;5.470;2023-01-28T10:26:52;102733.00;;;7.60
15079;BMP180;6932;51.438;5.470;2023-01-28T10:29:23;102737.00;;;7.80
15079;BMP180;6932;51.438;5.470;2023-01-28T10:32:01;102737.00;;;8.00
15079;BMP180;6932;51.438;5.470;2023-01-28T10:34:28;102728.00;;;8.10
15079;BMP180;6932;51.438;5.470;2023-01-28T10:36:57;102739.00;;;8.30
15079;BMP180;6932;51.438;5.470;2023-01-28T10:39:24;102725.00;;;8.40
15079;BMP180;6932;51.438;5.470;2023-01-28T10:41:51;102717.00;;;8.50
15079;BMP180;6932;51.438;5.470;2023-01-28T10:44:39;102728.00;;;8.60
15079;BMP180;6932;51.438;5.470;2023-01-28T10:47:14;102734.00;;;8.70
15079;BMP180;6932;51.438;5.470;2023-01-28T10:49:47;102717.00;;;8.80
15079;BMP180;6932;51.438;5.470;2023-01-28T10:52:14;102726.00;;;8.80
15079;BMP180;6932;51.438;5.470;2023-01-28T10:54:41;102717.00;;;8.90
15079;BMP180;6932;51.438;5.470;2023-01-28T10:57:12;102720.00;;;8.90
15079;BMP180;6932;51.438;5.470;2023-01-28T10:59:40;102718.00;;;9.00
15079;BMP180;6932;51.438;5.470;2023-01-28T11:02:30;102716.00;;;9.00
15079;BMP180;6932;51.438;5.470;2023-01-28T11:05:26;102716.00;;;9.00
15079;BMP180;6932;51.438;5.470;2023-01-28T11:10:37;102710.00;;;9.00
15079;BMP180;6932;51.438;5.470;2023-01-28T11:13:05;102715.00;;;9.00
15079;BMP180;6932;51.438;5.470;2023-01-28T11:15:32;102717.00;;;9.00
15079;BMP180;6932;51.438;5.470;2023-01-28T11:18:03;102717.00;;;9.10
15079;BMP180;6932;51.438;5.470;2023-01-28T11:20:37;102723.00;;;9.10
15079;BMP180;6932;51.438;5.470;2023-01-28T11:23:06;102717.00;;;9.10
15079;BMP180;6932;51.438;5.470;2023-01-28T11:25:35;102715.00;;;9.10
15079;BMP180;6932;51.438;5.470;2023-01-28T11:28:13;102707.00;;;9.10
15079;BMP180;6932;51.438;5.470;2023-01-28T11:30:40;102704.00;;;9.10
15079;BMP180;6932;51.438;5.470;2023-01-28T11:33:17;102691.00;;;9.10
15079;BMP180;6932;51.438;5.470;2023-01-28T11:36:13;102693.00;;;9.10
15079;BMP180;6932;51.438;5.470;2023-01-28T11:39:17;102695.00;;;9.10
15079;BMP180;6932;51.438;5.470;2023-01-28T11:41:41;102689.00;;;9.00
15079;BMP180;6932;51.438;5.470;2023-01-28T11:44:25;102688.00;;;9.10
15079;BMP180;6932;51.438;5.470;2023-01-28T11:49:58;102676.00;;;9.10
15079;BMP180;6932;51.438;5.470;2023-01-28T11:58:49;102669.00;;;9.10
15079;BMP180;6932;51.438;5.470;2023-01-28T12:01:46;102656.00;;;9.10
15079;BMP180;6932;51.438;5.470;2023-01-28T12:42:52;102516.00;;;7.60
15079;BMP180;6932;51.438;5.470;2023-01-28T12:45:43;102520.00;;;7.60
15079;BMP180;6932;51.438;5.470;2023-01-28T12:48:36;102530.00;;;7.50
15079;BMP180;6932;51.438;5.470;2023-01-28T12:51:21;102551.00;;;7.50
15079;BMP180;6932;51.438;5.470;2023-01-28T12:54:16;102541.00;;;7.50
15079;BMP180;6932;51.438;5.470;2023-01-28T12:56:52;102622.00;;;7.40
15079;BMP180;6932;51.438;5.470;2023-01-28T12:59:38;102643.00;;;7.60
15079;BMP180;6932;51.438;5.470;2023-01-28T13:04:51;102650.00;;;7.90
15079;BMP180;6932;51.438;5.470;2023-01-28T13:07:42;102644.00;;;8.10
15079;BMP180;6932;51.438;5.470;2023-01-28T13:12:47;102639.00;;;8.40
15079;BMP180;6932;51.438;5.470;2023-01-28T13:15:17;102635.00;;;8.60
15079;BMP180;6932;51.438;5.470;2023-01-28T13:21:02;102625.00;;;8.70
15079;BMP180;6932;51.438;5.470;2023-01-28T13:26:09;102640.00;;;8.90
15079;BMP180;6932;51.438;5.470;2023-01-28T13:28:35;102639.00;;;8.90
15079;BMP180;6932;51.438;5.470;2023-01-28T13:31:10;102639.00;;;9.00
15079;BMP180;6932;51.438;5.470;2023-01-28T13:33:48;102629.00;;;9.00
15079;BMP180;6932;51.438;5.470;2023-01-28T13:36:32;102620.00;;;9.00
15079;BMP180;6932;51.438;5.470;2023-01-28T13:39:04;102622.00;;;9.10
15079;BMP180;6932;51.438;5.470;2023-01-28T13:44:32;102619.00;;;9.20
15079;BMP180;6932;51.438;5.470;2023-01-28T13:49:38;102617.00;;;9.40
15079;BMP180;6932;51.438;5.470;2023-01-28T13:55:04;102595.00;;;9.50
15079;BMP180;6932;51.438;5.470;2023-01-28T14:09:49;102564.00;;;9.40
15079;BMP180;6932;51.438;5.470;2023-01-28T14:12:49;102567.00;;;9.40
15079;BMP180;6932;51.438;5.470;2023-01-28T14:16:16;102552.00;;;9.40
15079;BMP180;6932;51.438;5.470;2023-01-28T14:18:46;102558.00;;;9.40
15079;BMP180;6932;51.438;5.470;2023-01-28T14:21:17;102562.00;;;9.40
15079;BMP180;6932;51.438;5.470;2023-01-28T14:23:57;102567.00;;;9.40
15079;BMP180;6932;51.438;5.470;2023-01-28T14:27:19;102572.00;;;9.30
15079;BMP180;6932;51.438;5.470;2023-01-28T14:32:33;102573.00;;;9.30
15079;BMP180;6932;51.438;5.470;2023-01-28T14:35:07;102579.00;;;9.30
15079;BMP180;6932;51.438;5.470;2023-01-28T14:37:34;102586.00;;;9.30
15079;BMP180;6932;51.438;5.470;2023-01-28T14:40:05;102588.00;;;9.30
15079;BMP180;6932;51.438;5.470;2023-01-28T14:42:42;102588.00;;;9.30
15079;BMP180;6932;51.438;5.470;2023-01-28T14:48:18;102583.00;;;9.30
15079;BMP180;6932;51.438;5.470;2023-01-28T14:51:01;102595.00;;;9.20
15079;BMP180;6932;51.438;5.470;2023-01-28T14:54:00;102606.00;;;9.30
15079;BMP180;6932;51.438;5.470;2023-01-28T14:59:56;102610.00;;;9.30
15079;BMP180;6932;51.438;5.470;2023-01-28T15:02:32;102604.00;;;9.30
15079;BMP180;6932;51.438;5.470;2023-01-28T15:05:15;102602.00;;;9.40
15079;BMP180;6932;51.438;5.470;2023-01-28T15:07:48;102596.00;;;9.40
15079;BMP180;6932;51.438;5.470;2023-01-28T15:10:30;102602.00;;;9.40
15079;BMP180;6932;51.438;5.470;2023-01-28T15:13:15;102616.00;;;9.40
15079;BMP180;6932;51.438;5.470;2023-01-28T15:15:47;102609.00;;;9.40
15079;BMP180;6932;51.438;5.470;2023-01-28T15:18:35;102602.00;;;9.50
15079;BMP180;6932;51.438;5.470;2023-01-28T15:21:03;102612.00;;;9.40
15079;BMP180;6932;51.438;5.470;2023-01-28T15:23:36;102604.00;;;9.40
15079;BMP180;6932;51.438;5.470;2023-01-28T15:26:14;102604.00;;;9.40
15079;BMP180;6932;51.438;5.470;2023-01-28T15:28:43;102591.00;;;9.40
15079;BMP180;6932;51.438;5.470;2023-01-28T15:31:26;102600.00;;;9.40
15079;BMP180;6932;51.438;5.470;2023-01-28T15:34:11;102602.00;;;9.40
15079;BMP180;6932;51.438;5.470;2023-01-28T15:36:38;102597.00;;;9.40
15079;BMP180;6932;51.438;5.470;2023-01-28T15:39:11;102602.00;;;9.40
15079;BMP180;6932;51.438;5.470;2023-01-28T15:41:43;102602.00;;;9.40
15079;BMP180;6932;51.438;5.470;2023-01-28T15:44:32;102622.00;;;9.40
15079;BMP180;6932;51.438;5.470;2023-01-28T15:47:02;102627.00;;;9.40
15079;BMP180;6932;51.438;5.470;2023-01-28T15:49:41;102642.00;;;9.40
15079;BMP180;6932;51.438;5.470;2023-01-28T15:52:07;102649.00;;;9.40
15079;BMP180;6932;51.438;5.470;2023-01-28T15:54:39;102648.00;;;9.50
15079;BMP180;6932;51.438;5.470;2023-01-28T15:57:43;102656.00;;;9.50
15079;BMP180;6932;51.438;5.470;2023-01-28T16:00:14;102668.00;;;9.50
15079;BMP180;6932;51.438;5.470;2023-01-28T16:02:51;102671.00;;;9.50
15079;BMP180;6932;51.438;5.470;2023-01-28T16:05:33;102680.00;;;9.50
15079;BMP180;6932;51.438;5.470;2023-01-28T16:08:15;102679.00;;;9.50
15079;BMP180;6932;51.438;5.470;2023-01-28T16:10:52;102682.00;;;9.50
15079;BMP180;6932;51.438;5.470;2023-01-28T16:13:26;102674.00;;;9.50
15079;BMP180;6932;51.438;5.470;2023-01-28T16:15:55;102667.00;;;9.40
15079;BMP180;6932;51.438;5.470;2023-01-28T16:18:40;102678.00;;;9.40
15079;BMP180;6932;51.438;5.470;2023-01-28T16:21:19;102677.00;;;9.40
15079;BMP180;6932;51.438;5.470;2023-01-28T16:23:52;102665.00;;;9.40
15079;BMP180;6932;51.438;5.470;2023-01-28T16:26:24;102667.00;;;9.40
15079;BMP180;6932;51.438;5.470;2023-01-28T16:28:50;102661.00;;;9.40
15079;BMP180;6932;51.438;5.470;2023-01-28T16:31:17;102652.00;;;9.30
15079;BMP180;6932;51.438;5.470;2023-01-28T16:33:43;102646.00;;;9.30
15079;BMP180;6932;51.438;5.470;2023-01-28T16:36:14;102632.00;;;9.30
15079;BMP180;6932;51.438;5.470;2023-01-28T16:38:40;102638.00;;;9.30
15079;BMP180;6932;51.438;5.470;2023-01-28T16:41:25;102633.00;;;9.30
15079;BMP180;6932;51.438;5.470;2023-01-28T16:43:52;102638.00;;;9.30
15079;BMP180;6932;51.438;5.470;2023-01-28T16:46:18;102655.00;;;9.30
15079;BMP180;6932;51.438;5.470;2023-01-28T16:48:44;102655.00;;;9.20